Time;durP1;ratioP1;P1;durP2;ratioP2;P2;SDS_P1;SDS_P2;PMS_P1;PMS_P2;Temp;Humidity;BMP_temperature;BMP_pressure;BME280_temperature;BME280_humidity;BME280_pressure;Samples;Min_cycle;Max_cycle;Signal;HPM_P1;HPM_P2
2021/04/20 00:01:17;;;;;;;36.10;25.60;;;5.20;99.90;;;;;;5067141;28;20727;-85
2021/04/20 00:03:43;;;;;;;37.63;26.77;;;5.10;99.90;;;;;;5067456;28;20232;-85
2021/04/20 00:06:09;;;;;;;35.27;24.60;;;4.90;99.90;;;;;;5073314;28;20899;-86
2021/04/20 00:08:36;;;;;;;29.37;21.23;;;4.70;99.90;;;;;;5089365;28;20185;-86
2021/04/20 00:11:02;;;;;;;26.23;19.17;;;4.70;99.90;;;;;;5071506;28;20432;-86
2021/04/20 00:13:28;;;;;;;43.03;24.00;;;4.60;99.90;;;;;;5075563;28;20558;-84
2021/04/20 00:15:54;;;;;;;27.73;21.03;;;4.50;99.90;;;;;;5071308;28;20997;-85
2021/04/20 00:18:20;;;;;;;22.40;17.97;;;4.30;99.90;;;;;;5071003;28;20460;-85
2021/04/20 00:20:45;;;;;;;20.10;17.70;;;4.20;99.90;;;;;;5072070;28;20181;-85
2021/04/20 00:23:11;;;;;;;20.23;18.00;;;4.00;99.90;;;;;;5073287;28;20189;-86
2021/04/20 00:25:37;;;;;;;24.63;19.27;;;4.00;99.90;;;;;;5073542;28;20282;-86
2021/04/20 00:28:03;;;;;;;25.30;20.57;;;4.00;99.90;;;;;;5075754;28;20196;-86
2021/04/20 00:30:29;;;;;;;22.80;18.90;;;3.90;99.90;;;;;;5072395;28;20185;-86
2021/04/20 00:32:55;;;;;;;22.43;18.20;;;3.90;99.90;;;;;;5077321;28;20527;-86
2021/04/20 00:35:23;;;;;;;21.87;17.80;;;4.00;99.90;;;;;;5068412;28;21028;-86
2021/04/20 00:37:49;;;;;;;18.67;15.50;;;4.00;99.90;;;;;;5070827;28;20439;-86
2021/04/20 00:40:17;;;;;;;17.17;15.33;;;3.90;99.90;;;;;;5090857;28;21474;-86
2021/04/20 00:42:46;;;;;;;19.70;16.60;;;3.90;99.90;;;;;;5069744;28;20605;-85
2021/04/20 00:45:17;;;;;;;18.97;16.30;;;3.70;99.90;;;;;;5068729;28;20428;-85
2021/04/20 00:47:43;;;;;;;17.97;15.50;;;3.70;99.90;;;;;;5072553;28;20443;-85
2021/04/20 00:50:11;;;;;;;19.00;17.10;;;3.60;99.90;;;;;;5073481;28;20447;-85
2021/04/20 00:52:37;;;;;;;16.23;14.63;;;3.40;99.90;;;;;;5074888;28;20554;-84
2021/04/20 00:55:04;;;;;;;19.60;16.23;;;3.40;99.90;;;;;;5070621;28;20917;-84
2021/04/20 00:57:29;;;;;;;18.20;16.30;;;3.30;99.90;;;;;;5071904;28;20583;-85
2021/04/20 00:59:55;;;;;;;15.70;14.10;;;3.30;99.90;;;;;;5069539;28;20448;-84
2021/04/20 01:02:21;;;;;;;16.70;14.80;;;3.30;99.90;;;;;;5075620;28;20206;-85
2021/04/20 01:04:47;;;;;;;17.77;15.87;;;3.40;99.90;;;;;;5071249;28;20192;-85
2021/04/20 01:07:13;;;;;;;17.13;13.97;;;3.30;99.90;;;;;;5073175;28;20808;-85
2021/04/20 01:09:40;;;;;;;14.97;13.40;;;3.40;99.90;;;;;;5074315;28;20174;-86
2021/04/20 01:12:07;;;;;;;17.23;14.40;;;3.40;99.90;;;;;;5069203;28;20529;-88
2021/04/20 01:14:33;;;;;;;15.63;13.87;;;3.30;99.90;;;;;;5074021;28;20776;-87
2021/04/20 01:17:05;;;;;;;14.13;12.63;;;3.20;99.90;;;;;;5073738;28;20956;-87
2021/04/20 01:19:32;;;;;;;14.97;13.40;;;3.20;99.90;;;;;;5071029;28;20879;-88
2021/04/20 01:21:59;;;;;;;15.03;13.47;;;3.10;99.90;;;;;;5077641;28;20453;-87
2021/04/20 01:24:29;;;;;;;14.87;13.00;;;3.10;99.90;;;;;;5071174;28;20447;-87
2021/04/20 01:27:00;;;;;;;14.73;13.30;;;3.10;99.90;;;;;;5075282;28;20456;-87
2021/04/20 01:29:28;;;;;;;14.27;12.83;;;3.10;99.90;;;;;;5073849;28;20436;-87
2021/04/20 01:31:59;;;;;;;14.47;13.00;;;3.10;99.90;;;;;;5074699;28;21529;-87
2021/04/20 01:34:30;;;;;;;14.97;13.30;;;3.00;99.90;;;;;;5071526;28;20454;-87
2021/04/20 01:36:58;;;;;;;15.87;13.50;;;3.00;99.90;;;;;;5076449;28;20835;-87
2021/04/20 01:39:24;;;;;;;13.70;12.40;;;3.10;99.90;;;;;;5074125;28;20757;-87
2021/04/20 01:41:51;;;;;;;12.93;11.63;;;3.10;99.90;;;;;;5070158;28;20784;-87
2021/04/20 01:44:17;;;;;;;13.47;12.13;;;3.00;99.90;;;;;;5071186;28;20218;-87
2021/04/20 01:46:43;;;;;;;12.17;11.07;;;3.00;99.90;;;;;;5073890;28;20527;-87
2021/04/20 01:49:08;;;;;;;12.10;10.70;;;3.00;99.90;;;;;;5073137;28;20529;-87
2021/04/20 01:51:34;;;;;;;13.40;12.10;;;3.00;99.90;;;;;;5070074;28;20478;-87
2021/04/20 01:54:00;;;;;;;12.57;11.37;;;2.90;99.90;;;;;;5071333;28;20262;-87
2021/04/20 01:56:28;;;;;;;12.90;11.60;;;2.70;99.90;;;;;;5069195;28;20459;-87
2021/04/20 01:58:54;;;;;;;12.60;11.33;;;2.80;99.90;;;;;;5073247;28;20432;-87
2021/04/20 02:01:23;;;;;;;13.70;12.03;;;2.90;99.90;;;;;;5075944;28;20443;-87
2021/04/20 02:03:50;;;;;;;17.00;12.13;;;2.90;99.90;;;;;;5069205;28;20433;-86
2021/04/20 02:06:18;;;;;;;13.10;10.43;;;2.90;99.90;;;;;;5075503;28;20436;-86
2021/04/20 02:08:46;;;;;;;16.47;13.17;;;2.90;99.90;;;;;;5076528;28;20464;-86
2021/04/20 02:11:14;;;;;;;20.13;13.20;;;2.90;99.90;;;;;;5074905;28;20451;-86
2021/04/20 02:13:40;;;;;;;16.93;12.90;;;2.90;99.90;;;;;;5070524;28;20444;-87
2021/04/20 02:16:07;;;;;;;14.87;11.97;;;2.80;99.90;;;;;;5069603;28;20985;-87
2021/04/20 02:18:38;;;;;;;14.57;13.07;;;2.80;99.90;;;;;;5071549;28;20202;-87
2021/04/20 02:21:04;;;;;;;14.23;12.53;;;2.90;99.90;;;;;;5073234;28;20790;-87
2021/04/20 02:23:30;;;;;;;12.40;11.03;;;3.00;99.90;;;;;;5071667;28;20978;-87
2021/04/20 02:26:04;;;;;;;14.23;12.10;;;3.00;99.90;;;;;;5067556;28;20438;-87
2021/04/20 02:28:31;;;;;;;13.07;11.70;;;3.10;99.90;;;;;;5073489;28;20447;-86
2021/04/20 02:31:03;;;;;;;12.73;11.53;;;3.10;99.90;;;;;;5067906;28;20447;-87
2021/04/20 02:33:29;;;;;;;12.07;10.87;;;3.10;99.90;;;;;;5074315;28;20483;-87
2021/04/20 02:35:59;;;;;;;11.63;10.53;;;3.30;99.90;;;;;;5067802;28;20970;-87
2021/04/20 02:38:30;;;;;;;13.30;12.10;;;3.40;99.90;;;;;;5068172;28;20289;-86
2021/04/20 02:40:58;;;;;;;13.10;11.90;;;3.40;99.90;;;;;;5069816;28;20462;-87
2021/04/20 02:43:25;;;;;;;13.63;12.20;;;3.40;99.90;;;;;;5072046;28;20526;-87
2021/04/20 02:45:57;;;;;;;14.90;13.47;;;3.40;99.90;;;;;;5069047;28;20499;-87
2021/04/20 02:48:25;;;;;;;13.87;12.57;;;3.30;99.90;;;;;;5070630;28;20435;-87
2021/04/20 02:50:53;;;;;;;13.23;11.93;;;3.30;99.90;;;;;;5070521;28;20438;-87
2021/04/20 02:53:19;;;;;;;14.10;12.70;;;3.40;99.90;;;;;;5071456;28;20994;-86
2021/04/20 02:55:46;;;;;;;14.13;12.70;;;3.50;99.90;;;;;;5068559;28;20437;-86
2021/04/20 02:58:19;;;;;;;16.10;14.40;;;3.60;99.90;;;;;;5072945;28;20459;-86
2021/04/20 03:00:50;;;;;;;17.00;13.20;;;3.80;99.90;;;;;;5072052;28;20488;-86
2021/04/20 03:03:17;;;;;;;16.70;14.80;;;3.80;99.90;;;;;;5070432;28;20445;-86
2021/04/20 03:05:44;;;;;;;17.50;14.37;;;3.80;99.90;;;;;;5071640;28;20512;-86
2021/04/20 03:08:10;;;;;;;16.03;14.07;;;3.90;99.90;;;;;;5071720;28;20495;-87
2021/04/20 03:10:38;;;;;;;16.63;14.77;;;3.90;99.90;;;;;;5073881;28;20820;-88
2021/04/20 03:13:08;;;;;;;18.40;15.33;;;4.00;99.90;;;;;;5068439;28;20840;-87
2021/04/20 03:15:34;;;;;;;18.83;15.70;;;4.10;99.90;;;;;;5067647;28;21125;-85
2021/04/20 03:18:00;;;;;;;23.13;16.83;;;4.10;99.90;;;;;;5064384;28;20451;-85
2021/04/20 03:20:26;;;;;;;22.60;16.47;;;4.00;99.90;;;;;;5071489;28;20512;-86
2021/04/20 03:22:54;;;;;;;19.50;14.73;;;4.00;99.90;;;;;;5075122;28;20836;-86
2021/04/20 03:25:24;;;;;;;19.03;15.33;;;4.00;99.90;;;;;;5073696;28;21880;-86
2021/04/20 03:27:56;;;;;;;17.47;14.63;;;4.00;99.90;;;;;;5070492;28;20443;-86
2021/04/20 03:30:30;;;;;;;19.93;14.30;;;4.00;99.90;;;;;;5087476;28;20436;-86
2021/04/20 03:33:14;;;;;;;19.93;14.77;;;4.00;99.90;;;;;;5070195;28;20923;-87
2021/04/20 03:36:05;;;;;;;18.60;15.07;;;3.90;99.90;;;;;;5086851;28;20443;-85
2021/04/20 03:38:49;;;;;;;24.90;16.70;;;3.90;99.90;;;;;;5072197;28;20443;-87
2021/04/20 03:41:22;;;;;;;29.00;17.67;;;3.80;99.90;;;;;;5078101;28;20466;-87
2021/04/20 03:43:52;;;;;;;30.40;18.60;;;4.00;99.90;;;;;;5077656;28;20475;-87
2021/04/20 03:46:23;;;;;;;29.80;19.93;;;3.90;99.90;;;;;;5073366;28;20459;-87
2021/04/20 03:48:55;;;;;;;29.70;19.83;;;3.80;99.90;;;;;;5087239;28;20807;-87
2021/04/20 03:51:26;;;;;;;27.70;19.47;;;3.70;99.90;;;;;;5076829;28;21839;-87
2021/04/20 03:53:54;;;;;;;25.90;19.03;;;3.70;99.90;;;;;;5076305;28;20459;-87
2021/04/20 03:56:27;;;;;;;26.73;18.83;;;3.80;99.90;;;;;;5074479;28;20533;-87
2021/04/20 03:58:55;;;;;;;23.13;17.70;;;3.90;99.90;;;;;;5072370;28;20505;-88
2021/04/20 04:01:22;;;;;;;23.43;18.20;;;4.00;99.90;;;;;;5069859;28;20763;-89
2021/04/20 04:03:49;;;;;;;22.40;17.40;;;4.10;99.90;;;;;;5071465;28;20504;-88
2021/04/20 04:06:19;;;;;;;23.67;17.43;;;4.10;99.90;;;;;;5086293;28;20774;-88
2021/04/20 04:08:47;;;;;;;22.80;16.80;;;4.20;99.90;;;;;;5071867;28;20457;-88
2021/04/20 04:11:17;;;;;;;19.57;16.90;;;4.20;99.90;;;;;;5072546;28;20531;-88
2021/04/20 04:13:44;;;;;;;20.00;16.27;;;4.20;99.90;;;;;;5072574;28;20450;-88
2021/04/20 04:16:13;;;;;;;18.77;16.43;;;4.30;99.90;;;;;;5071813;28;20449;-88
2021/04/20 04:18:47;;;;;;;19.57;16.83;;;4.30;99.90;;;;;;5071550;28;20447;-88
2021/04/20 04:21:20;;;;;;;16.73;14.83;;;4.20;99.90;;;;;;5074607;28;20453;-92
2021/04/20 04:23:50;;;;;;;17.27;14.70;;;4.10;99.90;;;;;;5073128;28;22299;-92
2021/04/20 04:26:27;;;;;;;19.27;16.50;;;4.00;99.90;;;;;;5072689;28;20491;-89
2021/04/20 04:28:57;;;;;;;25.70;16.90;;;3.90;99.90;;;;;;5086486;28;20945;-90
2021/04/20 04:31:25;;;;;;;20.57;15.67;;;3.80;99.90;;;;;;5076755;28;20677;-91
2021/04/20 04:33:51;;;;;;;21.03;16.30;;;3.80;99.90;;;;;;5075766;28;21779;-90
2021/04/20 04:36:18;;;;;;;18.53;14.83;;;3.70;99.90;;;;;;5069180;28;20802;-90
2021/04/20 04:38:45;;;;;;;17.30;15.00;;;3.80;99.90;;;;;;5074276;28;20634;-90
2021/04/20 04:41:11;;;;;;;17.63;14.43;;;3.80;99.90;;;;;;5076943;28;20497;-89
2021/04/20 04:43:39;;;;;;;17.33;14.90;;;3.80;99.90;;;;;;5075837;28;20490;-88
2021/04/20 04:46:05;;;;;;;16.63;14.00;;;3.90;99.90;;;;;;5073138;28;20482;-89
2021/04/20 04:48:31;;;;;;;16.10;14.23;;;3.80;99.90;;;;;;5072625;28;21216;-89
2021/04/20 04:51:01;;;;;;;17.20;13.53;;;3.90;99.90;;;;;;5072261;28;20447;-89
2021/04/20 04:53:27;;;;;;;19.47;15.20;;;4.00;99.90;;;;;;5091554;28;20476;-89
2021/04/20 04:55:57;;;;;;;18.27;15.53;;;4.00;99.90;;;;;;5069751;28;20427;-89
2021/04/20 04:58:26;;;;;;;19.10;15.20;;;3.80;99.90;;;;;;5075802;28;20441;-90
2021/04/20 05:00:55;;;;;;;22.00;15.90;;;3.80;99.90;;;;;;5074390;28;20520;-91
2021/04/20 05:03:24;;;;;;;17.63;15.63;;;3.80;99.90;;;;;;5080067;28;20787;-92
2021/04/20 05:05:59;;;;;;;18.50;15.77;;;3.80;99.90;;;;;;5071821;28;20475;-91
2021/04/20 05:08:25;;;;;;;18.83;16.00;;;3.80;99.90;;;;;;5078264;28;20449;-89
2021/04/20 05:10:51;;;;;;;19.43;15.97;;;3.80;99.90;;;;;;5071017;28;20496;-89
2021/04/20 05:13:18;;;;;;;21.20;15.97;;;3.80;99.90;;;;;;5073798;28;20498;-90
2021/04/20 05:15:44;;;;;;;19.50;14.83;;;3.90;99.90;;;;;;5074543;28;20439;-90
2021/04/20 05:18:12;;;;;;;24.13;16.10;;;4.00;99.90;;;;;;5076413;28;20444;-90
2021/04/20 05:20:42;;;;;;;18.83;16.10;;;4.00;99.90;;;;;;5073815;28;20793;-89
2021/04/20 05:23:09;;;;;;;17.40;15.50;;;4.00;99.90;;;;;;5069566;28;20870;-90
2021/04/20 05:25:35;;;;;;;21.77;16.40;;;3.90;99.90;;;;;;5085800;28;20458;-89
2021/04/20 05:28:01;;;;;;;22.20;16.90;;;3.90;99.90;;;;;;5074536;28;20459;-90
2021/04/20 05:30:27;;;;;;;90.37;19.43;;;3.90;99.90;;;;;;5075223;28;20975;-90
2021/04/20 05:32:53;;;;;;;23.93;16.80;;;3.90;99.90;;;;;;5073993;28;20498;-91
2021/04/20 05:35:22;;;;;;;31.07;18.30;;;3.80;99.90;;;;;;5077184;28;20226;-90
2021/04/20 05:37:48;;;;;;;36.43;17.40;;;3.80;99.90;;;;;;5072364;28;20448;-90
2021/04/20 05:40:20;;;;;;;23.27;17.33;;;3.90;99.90;;;;;;5071367;28;20880;-88
2021/04/20 05:42:46;;;;;;;21.33;16.60;;;3.90;99.90;;;;;;5072817;28;20459;-90
2021/04/20 05:45:14;;;;;;;47.47;18.20;;;4.00;99.90;;;;;;5068817;28;21002;-89
2021/04/20 05:47:42;;;;;;;20.47;16.70;;;4.10;99.90;;;;;;5073481;28;20492;-89
2021/04/20 05:50:10;;;;;;;54.93;19.17;;;4.20;99.90;;;;;;5071542;28;20437;-88
2021/04/20 05:52:37;;;;;;;35.17;17.40;;;4.20;99.90;;;;;;5071232;28;20488;-90
2021/04/20 05:55:04;;;;;;;48.43;16.53;;;4.20;99.90;;;;;;5070567;28;20468;-88
2021/04/20 05:57:30;;;;;;;43.43;18.33;;;4.10;99.90;;;;;;5074546;28;20452;-89
2021/04/20 05:59:57;;;;;;;54.63;18.97;;;4.00;99.90;;;;;;5070442;28;20877;-89
2021/04/20 06:02:25;;;;;;;53.17;18.93;;;4.10;99.90;;;;;;5073615;28;20594;-89
2021/04/20 06:05:00;;;;;;;56.93;19.37;;;4.10;99.90;;;;;;5071367;28;20810;-88
2021/04/20 06:07:26;;;;;;;70.00;22.10;;;4.20;99.90;;;;;;5070098;28;20935;-89
2021/04/20 06:09:52;;;;;;;43.33;18.20;;;4.30;99.90;;;;;;5072815;28;20485;-89
2021/04/20 06:12:18;;;;;;;42.13;17.93;;;4.40;99.90;;;;;;5070407;28;20481;-88
2021/04/20 06:14:44;;;;;;;46.23;19.57;;;4.60;99.90;;;;;;5076073;28;20449;-88
2021/04/20 06:17:17;;;;;;;21.03;15.80;;;4.80;99.90;;;;;;5072703;28;20439;-88
2021/04/20 06:19:43;;;;;;;27.83;16.17;;;4.90;99.90;;;;;;5072996;28;20482;-88
2021/04/20 06:22:16;;;;;;;23.83;15.10;;;4.90;99.90;;;;;;5068820;28;20450;-88
2021/04/20 06:24:44;;;;;;;40.90;17.13;;;4.80;99.90;;;;;;5070865;28;20527;-88
2021/04/20 06:27:12;;;;;;;70.30;21.20;;;4.60;99.90;;;;;;5064834;28;20460;-87
2021/04/20 06:29:37;;;;;;;36.50;17.73;;;4.60;99.90;;;;;;5070877;28;20524;-84
2021/04/20 06:32:04;;;;;;;30.33;19.27;;;4.70;99.90;;;;;;5068274;28;20480;-84
2021/04/20 06:34:30;;;;;;;134.50;22.37;;;4.70;99.90;;;;;;5069553;28;20194;-83
2021/04/20 06:36:56;;;;;;;48.13;17.83;;;4.70;99.90;;;;;;5070343;28;20462;-83
2021/04/20 06:39:22;;;;;;;37.57;17.97;;;4.70;99.90;;;;;;5074010;28;20442;-83
2021/04/20 06:41:53;;;;;;;49.17;18.17;;;4.90;99.90;;;;;;5072345;28;20456;-83
2021/04/20 06:44:32;;;;;;;39.53;18.10;;;4.90;99.90;;;;;;5068733;28;20605;-84
2021/04/20 06:47:21;;;;;;;40.03;16.93;;;4.80;99.90;;;;;;5090898;28;20683;-84
2021/04/20 06:49:59;;;;;;;46.30;19.30;;;4.90;99.90;;;;;;5071232;28;20485;-85
2021/04/20 06:52:37;;;;;;;57.67;18.20;;;4.80;99.90;;;;;;5073317;28;20552;-84
2021/04/20 06:55:09;;;;;;;43.77;19.17;;;4.90;99.90;;;;;;5072874;28;20454;-84
2021/04/20 06:57:47;;;;;;;25.77;18.07;;;5.00;99.90;;;;;;5070873;28;20458;-83
2021/04/20 07:00:20;;;;;;;36.70;19.73;;;5.20;99.90;;;;;;5068636;28;20564;-82
2021/04/20 07:03:25;;;;;;;91.80;20.00;;;5.20;99.90;;;;;;5068825;28;20439;-81
2021/04/20 07:06:09;;;;;;;83.90;20.70;;;5.50;99.90;;;;;;4996055;28;20820;-81
2021/04/20 07:08:59;;;;;;;36.87;18.17;;;5.80;99.90;;;;;;5046299;28;20444;-81
2021/04/20 07:11:33;;;;;;;30.63;18.23;;;5.90;99.90;;;;;;5074559;28;21011;-82
2021/04/20 07:14:02;;;;;;;32.17;17.50;;;6.00;99.90;;;;;;5071889;28;20455;-82
2021/04/20 07:16:46;;;;;;;26.20;18.50;;;6.20;99.90;;;;;;5078018;28;20454;-82
2021/04/20 07:19:27;;;;;;;34.57;18.70;;;6.30;99.90;;;;;;5076650;28;20526;-81
2021/04/20 07:22:11;;;;;;;25.10;18.50;;;6.40;99.90;;;;;;5075364;28;20523;-82
2021/04/20 07:24:54;;;;;;;24.93;17.70;;;6.40;99.90;;;;;;5072037;28;20441;-83
2021/04/20 07:27:56;;;;;;;22.97;17.93;;;6.40;99.90;;;;;;5072550;28;20949;-83
2021/04/20 07:30:42;;;;;;;21.40;17.90;;;6.60;99.90;;;;;;5073637;28;20446;-82
2021/04/20 07:33:29;;;;;;;23.37;18.40;;;6.70;99.90;;;;;;5075061;28;20528;-82
2021/04/20 07:36:22;;;;;;;23.23;17.73;;;7.00;99.90;;;;;;5073229;28;21025;-83
2021/04/20 07:39:15;;;;;;;27.70;18.13;;;7.50;99.90;;;;;;5071610;28;20453;-84
2021/04/20 07:41:50;;;;;;;21.57;18.23;;;7.80;99.90;;;;;;5072651;28;20529;-86
2021/04/20 07:44:21;;;;;;;25.40;17.80;;;8.00;99.90;;;;;;5067575;28;20478;-83
2021/04/20 07:46:54;;;;;;;24.33;18.80;;;7.90;99.90;;;;;;5071304;28;20464;-84
2021/04/20 07:49:40;;;;;;;25.80;18.50;;;8.10;99.90;;;;;;5071287;28;20476;-83
2021/04/20 07:52:27;;;;;;;22.33;18.60;;;8.20;99.90;;;;;;5068526;28;20498;-83
2021/04/20 07:55:16;;;;;;;22.53;20.00;;;8.00;99.90;;;;;;5075330;28;20518;-83
2021/04/20 07:57:53;;;;;;;24.47;18.87;;;7.90;99.90;;;;;;5074567;28;20941;-84
2021/04/20 08:00:23;;;;;;;28.00;21.63;;;8.00;99.90;;;;;;5073721;28;20441;-83
2021/04/20 08:03:07;;;;;;;33.40;20.50;;;8.30;99.90;;;;;;5075167;28;20458;-84
2021/04/20 08:06:02;;;;;;;30.93;20.60;;;8.60;99.90;;;;;;5068809;28;20971;-84
2021/04/20 08:08:39;;;;;;;30.23;21.47;;;8.70;99.90;;;;;;5071127;28;20452;-83
2021/04/20 08:11:28;;;;;;;25.03;18.03;;;8.90;99.90;;;;;;5073834;28;20464;-85
2021/04/20 08:14:05;;;;;;;26.13;19.43;;;8.90;99.90;;;;;;5072230;28;20727;-84
2021/04/20 08:16:37;;;;;;;23.70;18.40;;;8.80;99.90;;;;;;5072800;28;21030;-83
2021/04/20 08:19:25;;;;;;;26.53;20.80;;;8.70;99.90;;;;;;5073183;28;20454;-84
2021/04/20 08:21:51;;;;;;;27.10;21.00;;;8.60;99.90;;;;;;5073396;28;20486;-84
2021/04/20 08:24:27;;;;;;;24.77;20.60;;;8.70;99.90;;;;;;5075608;28;20443;-85
2021/04/20 08:27:03;;;;;;;24.27;20.23;;;8.80;99.90;;;;;;5072231;28;20444;-84
2021/04/20 08:29:31;;;;;;;24.67;21.10;;;9.30;99.90;;;;;;5075044;28;20462;-85
2021/04/20 08:32:18;;;;;;;27.03;21.43;;;9.80;99.90;;;;;;5074484;28;20533;-85
2021/04/20 08:34:56;;;;;;;26.77;21.60;;;10.10;99.90;;;;;;5070034;28;20452;-85
2021/04/20 08:37:50;;;;;;;26.13;21.13;;;10.50;99.90;;;;;;5074031;28;21061;-84
2021/04/20 08:40:23;;;;;;;25.10;20.73;;;10.90;99.90;;;;;;5073214;28;20454;-85
2021/04/20 08:43:06;;;;;;;23.80;20.90;;;11.10;99.90;;;;;;5072604;28;20439;-84
2021/04/20 08:45:41;;;;;;;28.97;21.83;;;11.30;99.90;;;;;;5070717;28;20447;-85
2021/04/20 08:48:32;;;;;;;27.97;22.53;;;11.50;99.90;;;;;;5074084;28;20438;-85
2021/04/20 08:51:21;;;;;;;29.23;22.77;;;11.50;99.90;;;;;;5072232;28;21885;-84
2021/04/20 08:53:59;;;;;;;27.00;22.57;;;11.80;99.90;;;;;;5072073;28;20471;-85
2021/04/20 08:56:46;;;;;;;28.77;22.50;;;11.90;99.90;;;;;;5070736;28;20496;-84
2021/04/20 08:59:15;;;;;;;26.23;21.33;;;11.90;99.90;;;;;;5089136;28;20499;-84
2021/04/20 09:01:57;;;;;;;26.13;21.33;;;11.90;99.90;;;;;;5072061;28;20487;-85
2021/04/20 09:04:56;;;;;;;28.40;22.87;;;12.00;99.90;;;;;;5068898;28;20439;-84
2021/04/20 09:07:31;;;;;;;28.37;21.60;;;12.50;99.90;;;;;;5072996;28;20451;-84
2021/04/20 09:10:05;;;;;;;24.23;21.60;;;12.10;99.90;;;;;;5072752;28;21128;-83
2021/04/20 09:12:35;;;;;;;24.27;19.97;;;12.40;99.90;;;;;;5074109;28;20483;-86
2021/04/20 09:15:04;;;;;;;24.00;21.27;;;12.80;99.90;;;;;;5071579;28;20439;-83
2021/04/20 09:17:36;;;;;;;25.03;22.27;;;13.20;99.90;;;;;;5074596;28;20431;-84
2021/04/20 09:20:09;;;;;;;20.63;18.43;;;13.30;99.90;;;;;;5072879;28;20589;-84
2021/04/20 09:23:12;;;;;;;17.90;16.03;;;13.40;99.90;;;;;;5072170;28;20435;-84
2021/04/20 09:26:12;;;;;;;18.83;16.40;;;12.90;99.90;;;;;;5071891;28;20846;-84
2021/04/20 09:28:44;;;;;;;19.90;17.83;;;12.80;99.90;;;;;;5067669;28;20461;-85
2021/04/20 09:31:17;;;;;;;21.43;19.17;;;13.20;99.90;;;;;;5069225;28;20463;-84
2021/04/20 09:33:50;;;;;;;19.03;17.10;;;13.60;99.90;;;;;;5074055;28;20577;-84
2021/04/20 09:36:17;;;;;;;18.37;16.50;;;14.00;99.90;;;;;;5071245;28;20447;-84
2021/04/20 09:38:46;;;;;;;15.37;13.87;;;13.90;99.90;;;;;;5071678;28;20440;-83
2021/04/20 09:41:16;;;;;;;16.67;14.97;;;13.60;98.00;;;;;;5069629;28;20977;-84
2021/04/20 09:43:56;;;;;;;18.33;16.40;;;13.70;99.20;;;;;;5074061;28;20450;-84
2021/04/20 09:46:32;;;;;;;25.10;18.43;;;13.40;99.90;;;;;;5085969;28;20446;-84
2021/04/20 09:49:06;;;;;;;20.63;18.17;;;13.20;99.90;;;;;;5075647;28;20948;-84
2021/04/20 09:51:38;;;;;;;21.37;19.07;;;13.10;99.90;;;;;;5070111;28;20437;-83
2021/04/20 09:54:35;;;;;;;31.37;19.47;;;13.30;99.90;;;;;;5071141;28;20443;-84
2021/04/20 09:57:08;;;;;;;18.57;16.57;;;13.40;99.90;;;;;;5036423;28;21221;-84
2021/04/20 10:00:06;;;;;;;19.80;17.90;;;13.60;99.90;;;;;;5067793;28;20443;-82
2021/04/20 10:03:12;;;;;;;20.30;18.20;;;14.00;99.90;;;;;;5068087;28;20443;-84
2021/04/20 10:06:06;;;;;;;20.67;17.87;;;14.10;99.90;;;;;;5091643;28;20957;-85
2021/04/20 10:08:50;;;;;;;17.57;15.77;;;13.80;99.90;;;;;;5070269;28;20444;-84
2021/04/20 10:11:31;;;;;;;17.30;15.50;;;13.80;99.70;;;;;;5073775;28;20451;-84
2021/04/20 10:14:18;;;;;;;17.30;15.47;;;13.70;99.50;;;;;;5069881;28;20849;-85
2021/04/20 10:17:06;;;;;;;16.70;15.10;;;14.10;99.60;;;;;;5070426;28;20440;-83
2021/04/20 10:19:42;;;;;;;18.93;16.90;;;14.60;99.80;;;;;;5071211;28;20888;-84
2021/04/20 10:22:21;;;;;;;17.60;15.90;;;15.00;98.10;;;;;;5073690;28;20793;-82
2021/04/20 10:25:21;;;;;;;15.03;13.43;;;15.50;98.50;;;;;;5073300;28;20447;-83
2021/04/20 10:27:53;;;;;;;15.00;13.50;;;15.80;94.60;;;;;;5086021;28;20448;-84
2021/04/20 10:30:25;;;;;;;14.67;13.17;;;16.00;94.40;;;;;;5069662;28;20455;-83
2021/04/20 10:32:52;;;;;;;13.30;12.00;;;16.30;93.50;;;;;;5068974;28;20881;-84
2021/04/20 10:35:30;;;;;;;15.10;13.50;;;16.20;92.20;;;;;;5068703;28;20431;-83
2021/04/20 10:37:59;;;;;;;14.40;13.00;;;15.80;92.30;;;;;;5073581;28;20435;-84
2021/04/20 10:40:31;;;;;;;13.10;11.80;;;15.00;92.30;;;;;;5071745;28;20444;-83
2021/04/20 10:43:04;;;;;;;14.53;12.10;;;15.20;92.50;;;;;;5072038;28;20452;-84
2021/04/20 10:45:31;;;;;;;17.07;15.37;;;15.00;93.80;;;;;;5072959;28;20534;-83
2021/04/20 10:47:58;;;;;;;13.13;11.83;;;15.40;94.20;;;;;;5068665;28;20875;-83
2021/04/20 10:50:26;;;;;;;14.63;13.13;;;15.50;94.70;;;;;;5068917;28;20455;-83
2021/04/20 10:52:56;;;;;;;13.60;12.30;;;16.00;92.10;;;;;;5071725;28;20677;-83
2021/04/20 10:55:28;;;;;;;12.87;11.57;;;15.80;93.00;;;;;;5068268;28;20757;-83
2021/04/20 10:57:55;;;;;;;12.80;10.50;;;15.70;93.70;;;;;;5089537;28;20574;-83
2021/04/20 11:00:23;;;;;;;12.27;10.60;;;15.50;91.70;;;;;;5070401;28;21096;-83
2021/04/20 11:02:57;;;;;;;15.07;11.30;;;15.40;91.20;;;;;;5070250;28;20808;-84
2021/04/20 11:05:23;;;;;;;11.17;10.07;;;15.40;91.50;;;;;;5066803;28;20435;-83
2021/04/20 11:07:50;;;;;;;11.30;10.10;;;15.70;92.30;;;;;;5072080;28;20802;-83
2021/04/20 11:10:17;;;;;;;12.10;10.90;;;16.00;90.30;;;;;;5071739;28;20971;-82
2021/04/20 11:12:48;;;;;;;11.77;10.67;;;16.20;91.70;;;;;;5073523;28;20527;-83
2021/04/20 11:15:33;;;;;;;12.57;10.80;;;16.30;90.80;;;;;;5071794;28;20821;-83
2021/04/20 11:18:07;;;;;;;10.97;9.87;;;16.90;93.20;;;;;;5068015;28;20455;-84
2021/04/20 11:20:38;;;;;;;11.60;10.20;;;18.20;86.40;;;;;;5073152;28;20427;-85
2021/04/20 11:23:07;;;;;;;11.50;10.37;;;18.40;82.60;;;;;;5074205;28;20435;-84
2021/04/20 11:25:47;;;;;;;11.40;10.40;;;19.40;84.40;;;;;;5072305;28;21156;-84
2021/04/20 11:28:40;;;;;;;15.30;9.90;;;20.10;79.70;;;;;;5073987;28;20928;-84
2021/04/20 11:31:07;;;;;;;11.97;10.67;;;20.20;72.40;;;;;;5066322;28;20466;-84
2021/04/20 11:33:39;;;;;;;10.77;9.73;;;19.30;70.80;;;;;;5071646;28;20475;-84
2021/04/20 11:36:14;;;;;;;12.60;10.87;;;18.60;70.60;;;;;;5069323;28;20436;-84
2021/04/20 11:39:01;;;;;;;11.47;10.40;;;18.60;74.70;;;;;;5070845;28;20435;-84
2021/04/20 11:41:42;;;;;;;9.97;9.13;;;18.70;69.50;;;;;;5090301;28;20440;-83
2021/04/20 11:44:10;;;;;;;9.80;8.90;;;19.20;73.60;;;;;;5068199;28;20948;-85
2021/04/20 11:46:38;;;;;;;8.80;8.00;;;19.40;62.60;;;;;;5072625;28;20960;-84
2021/04/20 11:49:25;;;;;;;9.53;8.63;;;19.00;70.30;;;;;;5071211;28;20823;-84
2021/04/20 11:51:54;;;;;;;9.70;8.70;;;18.90;65.50;;;;;;5096790;28;20443;-82
2021/04/20 11:54:22;;;;;;;9.33;8.43;;;19.20;65.30;;;;;;5072007;28;20980;-83
2021/04/20 11:56:52;;;;;;;10.30;9.27;;;19.70;69.50;;;;;;5070906;28;20859;-85
2021/04/20 11:59:20;;;;;;;11.57;10.20;;;19.40;69.00;;;;;;5071605;28;20439;-85
2021/04/20 12:01:48;;;;;;;11.00;9.90;;;19.30;59.40;;;;;;5074550;28;20451;-85
2021/04/20 12:04:15;;;;;;;9.80;8.80;;;19.40;71.10;;;;;;5071953;28;21072;-84
2021/04/20 12:06:48;;;;;;;10.70;9.70;;;19.50;63.60;;;;;;5074828;28;20533;-84
2021/04/20 12:09:23;;;;;;;11.10;9.93;;;19.40;62.70;;;;;;5074430;28;20463;-83
2021/04/20 12:11:49;;;;;;;10.47;9.50;;;19.30;67.60;;;;;;5074417;28;20527;-85
2021/04/20 12:14:23;;;;;;;10.90;9.90;;;19.60;59.10;;;;;;5072693;28;21001;-84
2021/04/20 12:16:49;;;;;;;11.40;10.30;;;19.90;59.60;;;;;;5077386;28;20435;-84
2021/04/20 12:19:19;;;;;;;11.47;10.47;;;20.00;68.20;;;;;;5070794;28;21007;-86
2021/04/20 12:21:47;;;;;;;11.13;9.90;;;20.20;67.90;;;;;;5070643;28;20468;-84
2021/04/20 12:24:17;;;;;;;12.60;11.10;;;19.10;61.40;;;;;;5072900;28;20435;-84
2021/04/20 12:26:49;;;;;;;12.60;11.40;;;18.30;61.50;;;;;;5087444;28;20528;-84
2021/04/20 12:29:17;;;;;;;10.63;9.53;;;17.70;66.10;;;;;;5065300;28;20427;-83
2021/04/20 12:31:43;;;;;;;11.40;10.27;;;17.80;66.10;;;;;;5070991;28;20511;-83
2021/04/20 12:34:09;;;;;;;11.30;9.27;;;18.80;71.50;;;;;;5071425;28;20439;-84
2021/04/20 12:36:38;;;;;;;10.10;9.10;;;19.20;66.80;;;;;;5070639;28;20428;-84
2021/04/20 12:39:08;;;;;;;10.67;9.50;;;18.90;65.40;;;;;;5071023;28;20451;-84
2021/04/20 12:41:35;;;;;;;11.67;10.47;;;18.40;63.40;;;;;;5069994;28;20451;-84
2021/04/20 12:44:09;;;;;;;11.53;10.43;;;17.90;65.40;;;;;;5068950;28;20587;-86
2021/04/20 12:46:36;;;;;;;11.90;9.87;;;18.50;71.70;;;;;;5070343;28;20462;-85
2021/04/20 12:49:07;;;;;;;12.80;11.20;;;19.20;63.90;;;;;;5070869;28;20435;-84
2021/04/20 12:51:37;;;;;;;10.67;9.57;;;18.70;61.10;;;;;;5069843;28;20487;-85
2021/04/20 12:54:05;;;;;;;11.43;10.10;;;18.30;63.00;;;;;;5070685;28;20463;-84
2021/04/20 12:56:38;;;;;;;10.93;9.83;;;18.20;64.80;;;;;;5076893;28;20462;-84
2021/04/20 12:59:08;;;;;;;10.27;9.27;;;18.60;70.00;;;;;;5070562;28;20443;-84
2021/04/20 13:01:36;;;;;;;10.00;9.10;;;19.30;63.80;;;;;;5088144;28;20492;-86